createdAt,value
2023-03-19T00:00:28.758Z,82.21
2023-03-19T00:02:55.625Z,82.79
2023-03-19T00:05:22.230Z,83.40
2023-03-19T00:07:48.660Z,83.07
2023-03-19T00:10:15.270Z,83.17
2023-03-19T00:12:41.954Z,82.46
2023-03-19T00:15:13.981Z,83.38
2023-03-19T00:17:41.768Z,82.83
2023-03-19T00:20:09.845Z,83.13
2023-03-19T00:22:39.749Z,83.63
2023-03-19T00:25:09.789Z,84.61
2023-03-19T00:27:38.595Z,85.75
2023-03-19T00:30:11.625Z,84.11
2023-03-19T00:32:39.512Z,84.24
2023-03-19T00:35:08.847Z,83.33
2023-03-19T00:37:38.409Z,83.19
2023-03-19T00:40:05.548Z,83.50
2023-03-19T00:42:32.527Z,84.17
2023-03-19T00:44:59.122Z,84.51
2023-03-19T00:47:25.968Z,84.57
2023-03-19T00:49:52.400Z,84.13
2023-03-19T00:52:18.923Z,84.95
2023-03-19T00:54:46.106Z,84.13
2023-03-19T00:57:12.548Z,84.22
2023-03-19T00:59:42.097Z,84.17
2023-03-19T01:02:11.319Z,83.60
2023-03-19T01:04:39.286Z,83.67
2023-03-19T01:07:05.784Z,83.58
2023-03-19T01:09:32.774Z,83.66
2023-03-19T01:11:59.244Z,83.69
2023-03-19T01:14:25.678Z,83.31
2023-03-19T01:16:52.094Z,82.82
2023-03-19T01:19:19.972Z,82.79
2023-03-19T01:21:46.717Z,82.47
2023-03-19T01:24:13.815Z,82.17
2023-03-19T01:26:43.806Z,82.09
2023-03-19T01:29:13.320Z,82.05
2023-03-19T01:31:43.076Z,81.37
2023-03-19T01:34:10.767Z,82.02
2023-03-19T01:36:37.277Z,82.31
2023-03-19T01:39:03.912Z,82.28
2023-03-19T01:41:30.754Z,82.83
2023-03-19T01:43:57.257Z,82.67
2023-03-19T01:46:30.981Z,82.54
2023-03-19T01:49:01.141Z,82.46
2023-03-19T01:51:32.141Z,82.53
2023-03-19T01:54:07.554Z,82.20
2023-03-19T01:56:37.628Z,82.24
2023-03-19T01:59:29.712Z,82.10
2023-03-19T02:02:05.340Z,82.15
2023-03-19T02:04:34.125Z,82.38
2023-03-19T02:07:02.830Z,82.34
2023-03-19T02:09:30.531Z,82.19
2023-03-19T02:11:59.266Z,83.08
2023-03-19T02:14:26.096Z,83.67
2023-03-19T02:16:54.447Z,83.73
2023-03-19T02:19:44.247Z,84.62
2023-03-19T02:22:16.267Z,84.45
2023-03-19T02:24:53.446Z,84.67
2023-03-19T02:27:20.863Z,85.17
2023-03-19T02:29:49.326Z,85.96
2023-03-19T02:32:16.352Z,87.08
2023-03-19T02:34:46.876Z,87.58
2023-03-19T02:37:27.877Z,87.83
2023-03-19T02:39:59.469Z,88.04
2023-03-19T02:42:28.840Z,88.42
2023-03-19T02:44:55.520Z,88.09
2023-03-19T02:47:22.023Z,88.12
2023-03-19T02:49:48.480Z,88.30
2023-03-19T02:52:16.710Z,89.00
2023-03-19T02:54:45.192Z,89.32
2023-03-19T02:57:11.621Z,90.70
2023-03-19T02:59:39.085Z,90.18
2023-03-19T03:02:06.783Z,90.66
2023-03-19T03:04:34.907Z,91.14
2023-03-19T03:07:01.793Z,90.74
2023-03-19T03:09:28.288Z,90.53
2023-03-19T03:11:54.857Z,90.58
2023-03-19T03:14:21.325Z,90.55
2023-03-19T03:16:47.909Z,90.61
2023-03-19T03:19:17.886Z,90.60
2023-03-19T03:21:44.320Z,90.34
2023-03-19T03:24:11.055Z,89.95
2023-03-19T03:26:38.985Z,90.32
2023-03-19T03:29:06.663Z,90.41
2023-03-19T03:31:33.576Z,90.64
2023-03-19T03:34:00.641Z,90.91
2023-03-19T03:36:27.852Z,90.88
2023-03-19T03:38:54.786Z,91.05
2023-03-19T03:41:21.663Z,90.45
2023-03-19T03:43:51.471Z,90.85
2023-03-19T03:46:21.075Z,90.73
2023-03-19T03:48:51.481Z,90.94
2023-03-19T03:51:22.142Z,91.14
2023-03-19T03:53:49.252Z,90.94
2023-03-19T03:56:15.736Z,91.91
2023-03-19T03:58:42.298Z,91.91
2023-03-19T04:01:15.326Z,92.11
2023-03-19T04:03:41.910Z,93.21
2023-03-19T04:06:13.969Z,93.38
2023-03-19T04:08:40.371Z,94.32
2023-03-19T04:11:08.299Z,94.44
2023-03-19T04:13:37.146Z,94.40
2023-03-19T04:16:08.257Z,93.70
2023-03-19T04:18:34.905Z,93.69
2023-03-19T04:21:01.953Z,93.38
2023-03-19T04:23:28.805Z,93.72
2023-03-19T04:26:00.386Z,93.63
2023-03-19T04:28:27.372Z,93.48
2023-03-19T04:31:02.743Z,93.39
2023-03-19T04:33:29.920Z,93.87
2023-03-19T04:35:56.688Z,94.11
2023-03-19T04:38:23.376Z,93.90
2023-03-19T04:40:54.223Z,93.40
2023-03-19T04:43:24.534Z,93.32
2023-03-19T04:45:54.596Z,93.52
2023-03-19T04:48:24.286Z,93.84
2023-03-19T04:50:57.041Z,94.21
2023-03-19T04:53:24.701Z,94.76
2023-03-19T04:55:54.594Z,95.01
2023-03-19T04:58:22.849Z,94.84
2023-03-19T05:00:49.301Z,95.24
2023-03-19T05:03:16.538Z,94.94
2023-03-19T05:05:43.207Z,94.63
2023-03-19T05:08:09.738Z,94.93
2023-03-19T05:10:37.543Z,94.84
2023-03-19T05:13:04.617Z,94.71
2023-03-19T05:15:31.486Z,94.98
2023-03-19T05:17:58.388Z,95.23
2023-03-19T05:20:25.320Z,94.34
2023-03-19T05:22:54.732Z,93.17
2023-03-19T05:25:23.606Z,93.40
2023-03-19T05:27:50.089Z,93.87
2023-03-19T05:30:18.422Z,93.40
2023-03-19T05:32:46.935Z,93.63
2023-03-19T05:35:14.369Z,93.70
2023-03-19T05:37:41.578Z,93.79
2023-03-19T05:40:08.858Z,94.24
2023-03-19T05:42:35.461Z,95.91
2023-03-19T05:45:02.276Z,96.78
2023-03-19T05:47:28.728Z,97.78
2023-03-19T05:49:56.416Z,99.09
2023-03-19T05:52:26.443Z,98.61
2023-03-19T05:54:54.050Z,99.00
2023-03-19T05:57:21.247Z,99.33
2023-03-19T05:59:47.775Z,100.00
2023-03-19T06:02:14.641Z,100.00
2023-03-19T06:04:41.180Z,100.00
2023-03-19T06:07:07.813Z,100.00
2023-03-19T06:09:34.274Z,99.96
2023-03-19T06:12:00.862Z,99.95
2023-03-19T06:14:27.275Z,99.93
2023-03-19T06:16:56.838Z,99.88
2023-03-19T06:19:26.065Z,98.54
2023-03-19T06:21:54.117Z,98.65
2023-03-19T06:24:20.672Z,98.99
2023-03-19T06:26:47.172Z,98.82
2023-03-19T06:29:13.670Z,99.08
2023-03-19T06:31:41.652Z,99.29
2023-03-19T06:34:08.471Z,99.17
2023-03-19T06:36:34.963Z,98.49
2023-03-19T06:39:01.637Z,98.37
2023-03-19T06:41:28.072Z,97.53
2023-03-19T06:43:57.581Z,96.25
2023-03-19T06:46:26.588Z,95.39
2023-03-19T06:48:55.177Z,94.80
2023-03-19T06:51:21.945Z,92.58
2023-03-19T06:53:48.444Z,92.18
2023-03-19T06:56:15.697Z,91.47
2023-03-19T06:58:42.162Z,90.19
2023-03-19T07:01:09.153Z,89.00
2023-03-19T07:03:35.644Z,87.64
2023-03-19T07:06:02.127Z,85.71
2023-03-19T07:08:29.898Z,85.16
2023-03-19T07:10:57.683Z,83.80
2023-03-19T07:13:27.447Z,84.46
2023-03-19T07:15:57.069Z,85.85
2023-03-19T07:18:27.168Z,86.79
2023-03-19T07:20:56.787Z,89.63
2023-03-19T07:23:23.483Z,91.46
2023-03-19T07:25:49.993Z,89.77
2023-03-19T07:28:16.506Z,89.27
2023-03-19T07:30:42.992Z,88.21
2023-03-19T07:33:09.443Z,88.31
2023-03-19T07:35:36.622Z,86.96
2023-03-19T07:38:03.304Z,85.46
2023-03-19T07:40:29.930Z,85.00
2023-03-19T07:42:56.428Z,83.49
2023-03-19T07:45:25.491Z,81.30
2023-03-19T07:47:52.595Z,80.52
2023-03-19T07:50:19.429Z,81.21
2023-03-19T07:52:48.011Z,79.29
2023-03-19T07:55:15.641Z,79.75
2023-03-19T07:57:42.199Z,78.55
2023-03-19T08:00:10.598Z,76.78
2023-03-19T08:02:37.153Z,74.71
2023-03-19T08:05:04.824Z,75.21
2023-03-19T08:07:32.151Z,75.20
2023-03-19T08:09:58.752Z,74.25
2023-03-19T08:12:26.128Z,74.71
2023-03-19T08:14:53.998Z,73.99
2023-03-19T08:17:21.384Z,73.43
2023-03-19T08:19:47.906Z,75.73
2023-03-19T08:22:14.418Z,76.07
2023-03-19T08:24:40.906Z,75.69
2023-03-19T08:27:08.120Z,76.30
2023-03-19T08:29:35.181Z,75.68
2023-03-19T08:32:01.796Z,75.26
2023-03-19T08:34:28.240Z,76.33
2023-03-19T08:36:57.818Z,74.88
2023-03-19T08:39:27.327Z,73.03
2023-03-19T08:41:53.898Z,75.25
2023-03-19T08:44:20.357Z,76.98
2023-03-19T08:46:46.843Z,75.42
2023-03-19T08:49:13.277Z,75.19
2023-03-19T08:51:40.506Z,75.70
2023-03-19T08:54:07.061Z,74.19
2023-03-19T08:56:33.584Z,74.57
2023-03-19T08:59:00.232Z,73.99
2023-03-19T09:01:27.109Z,74.46
2023-03-19T09:03:55.713Z,76.23
2023-03-19T09:06:22.210Z,76.15
2023-03-19T09:08:48.918Z,76.67
2023-03-19T09:11:16.924Z,76.71
2023-03-19T09:13:43.934Z,74.73
2023-03-19T09:16:10.524Z,74.60
2023-03-19T09:18:37.060Z,73.50
2023-03-19T09:21:03.892Z,72.16
2023-03-19T09:23:30.408Z,67.71
2023-03-19T09:25:56.950Z,67.72
2023-03-19T09:28:27.180Z,66.22
2023-03-19T09:30:54.876Z,63.40
2023-03-19T09:33:21.723Z,63.80
2023-03-19T09:35:54.016Z,61.20
2023-03-19T09:38:22.593Z,59.36
2023-03-19T09:41:01.864Z,60.73
2023-03-19T09:43:28.279Z,60.95
2023-03-19T09:46:02.219Z,61.41
2023-03-19T09:48:47.033Z,59.08
2023-03-19T09:51:21.901Z,57.33
2023-03-19T09:53:58.294Z,59.28
2023-03-19T09:56:27.981Z,60.73
2023-03-19T09:58:57.796Z,62.15
2023-03-19T10:01:41.461Z,64.97
2023-03-19T10:04:42.552Z,65.98
2023-03-19T10:07:25.925Z,66.67
2023-03-19T10:10:05.069Z,64.51
2023-03-19T10:12:54.761Z,60.02
2023-03-19T10:15:35.564Z,57.39
2023-03-19T10:18:11.337Z,58.17
2023-03-19T10:20:58.053Z,59.58
2023-03-19T10:23:39.934Z,58.47
2023-03-19T10:26:12.202Z,60.88
2023-03-19T10:28:42.451Z,63.77
2023-03-19T10:31:37.846Z,65.37
2023-03-19T10:34:32.021Z,64.49
2023-03-19T10:37:14.338Z,64.82
2023-03-19T10:39:43.667Z,64.07
2023-03-19T10:42:20.004Z,63.49
2023-03-19T10:45:12.754Z,59.27
2023-03-19T10:47:41.182Z,56.39
2023-03-19T10:50:25.297Z,56.83
2023-03-19T10:53:00.698Z,58.68
2023-03-19T10:55:30.956Z,61.37
2023-03-19T10:58:04.547Z,59.14
2023-03-19T11:00:33.562Z,58.91
2023-03-19T11:03:04.048Z,56.55
2023-03-19T11:05:34.015Z,54.22
2023-03-19T11:08:34.581Z,51.47
2023-03-19T11:11:01.764Z,47.64
2023-03-19T11:13:28.398Z,47.00
2023-03-19T11:15:59.214Z,45.67
2023-03-19T11:18:36.980Z,44.09
2023-03-19T11:21:20.634Z,47.32
2023-03-19T11:23:55.455Z,44.34
2023-03-19T11:26:26.232Z,45.88
2023-03-19T11:28:52.854Z,50.80
2023-03-19T11:31:45.016Z,53.84
2023-03-19T11:34:35.953Z,52.79
2023-03-19T11:37:29.728Z,52.77
2023-03-19T11:40:08.533Z,47.03
2023-03-19T11:42:57.119Z,43.30
2023-03-19T11:45:33.850Z,42.00
2023-03-19T11:48:34.649Z,41.52
2023-03-19T11:51:13.357Z,43.07
2023-03-19T11:54:01.451Z,42.84
2023-03-19T11:56:49.215Z,43.56
2023-03-19T11:59:58.484Z,46.21
2023-03-19T12:02:45.355Z,51.84
2023-03-19T12:05:27.937Z,53.34
2023-03-19T12:08:38.051Z,61.74
2023-03-19T12:11:14.366Z,73.06
2023-03-19T12:13:59.070Z,76.12
2023-03-19T12:16:53.062Z,72.96
2023-03-19T12:19:32.016Z,65.68
2023-03-19T12:22:17.345Z,61.43
2023-03-19T12:25:06.090Z,57.32
2023-03-19T12:27:36.669Z,48.53
2023-03-19T12:30:30.143Z,43.16
2023-03-19T12:33:08.921Z,44.86
2023-03-19T12:35:38.519Z,45.22
2023-03-19T12:38:28.755Z,48.22
2023-03-19T12:41:03.766Z,51.93
2023-03-19T12:43:39.432Z,58.28
2023-03-19T12:46:25.787Z,64.24
2023-03-19T12:49:07.967Z,65.65
2023-03-19T12:51:42.353Z,67.03
2023-03-19T12:54:18.200Z,60.79
2023-03-19T12:57:06.258Z,58.53
2023-03-19T12:59:54.723Z,61.26
2023-03-19T13:03:03.333Z,66.09
2023-03-19T13:05:41.733Z,79.09
2023-03-19T13:08:27.613Z,82.26
2023-03-19T13:10:57.201Z,85.22
2023-03-19T13:13:51.356Z,89.75
2023-03-19T13:16:30.946Z,95.39
2023-03-19T13:19:06.691Z,96.21
2023-03-19T13:21:37.698Z,100.00
2023-03-19T13:24:19.425Z,97.58
2023-03-19T13:26:47.559Z,95.64
2023-03-19T13:29:31.658Z,96.24
2023-03-19T13:32:26.580Z,99.75
2023-03-19T13:35:28.092Z,99.11
2023-03-19T13:38:19.858Z,95.52
2023-03-19T13:40:48.215Z,93.35
2023-03-19T13:43:28.152Z,94.05
2023-03-19T13:46:15.948Z,90.40
2023-03-19T13:48:45.524Z,84.31
2023-03-19T13:51:18.021Z,81.00
2023-03-19T13:54:08.248Z,74.09
2023-03-19T13:57:03.336Z,73.35
2023-03-19T13:59:33.555Z,74.58
2023-03-19T14:02:01.906Z,76.87
2023-03-19T14:04:31.175Z,77.16
2023-03-19T14:07:18.158Z,76.08
2023-03-19T14:10:04.679Z,70.71
2023-03-19T14:12:42.954Z,68.30
2023-03-19T14:15:09.854Z,67.82
2023-03-19T14:17:44.993Z,64.14
2023-03-19T14:20:12.653Z,64.65
2023-03-19T14:23:08.941Z,62.29
2023-03-19T14:26:07.000Z,61.96
2023-03-19T14:28:45.393Z,64.37
2023-03-19T14:31:43.241Z,66.25
2023-03-19T14:34:38.891Z,64.81
2023-03-19T14:37:44.292Z,63.76
2023-03-19T14:40:16.144Z,58.13
2023-03-19T14:43:15.393Z,58.31
2023-03-19T14:45:59.637Z,53.72
2023-03-19T14:48:40.667Z,50.37
2023-03-19T14:51:44.766Z,51.94
2023-03-19T14:54:58.589Z,50.52
2023-03-19T14:57:33.028Z,51.24
2023-03-19T15:00:00.280Z,49.73
2023-03-19T15:02:41.161Z,50.48
2023-03-19T15:05:17.527Z,50.96
2023-03-19T15:07:47.602Z,47.80
2023-03-19T15:10:20.296Z,48.36
2023-03-19T15:13:05.373Z,47.93
2023-03-19T15:16:02.455Z,49.19
2023-03-19T15:18:31.896Z,50.55
2023-03-19T15:21:02.537Z,49.35
2023-03-19T15:23:32.920Z,50.31
2023-03-19T15:26:03.148Z,48.07
2023-03-19T15:28:34.508Z,49.59
2023-03-19T15:31:26.770Z,49.79
2023-03-19T15:33:53.478Z,52.96
2023-03-19T15:36:31.318Z,53.42
2023-03-19T15:39:04.068Z,52.46
2023-03-19T15:41:33.118Z,52.08
2023-03-19T15:44:01.493Z,51.70
2023-03-19T15:46:34.553Z,49.81
2023-03-19T15:49:20.859Z,51.58
2023-03-19T15:51:53.288Z,52.99
2023-03-19T15:54:20.960Z,55.46
2023-03-19T15:56:50.423Z,55.45
2023-03-19T15:59:20.595Z,59.50
2023-03-19T16:01:47.447Z,57.60
2023-03-19T16:04:22.072Z,56.98
2023-03-19T16:06:49.973Z,56.84
2023-03-19T16:09:23.059Z,58.69
2023-03-19T16:11:49.653Z,60.01
2023-03-19T16:14:42.321Z,62.68
2023-03-19T16:17:14.455Z,65.46
2023-03-19T16:19:50.000Z,66.58
2023-03-19T16:22:20.465Z,66.89
2023-03-19T16:24:48.909Z,68.68
2023-03-19T16:27:19.350Z,69.14
2023-03-19T16:29:56.737Z,69.42
2023-03-19T16:32:32.110Z,69.74
2023-03-19T16:35:25.400Z,71.44
2023-03-19T16:37:53.909Z,71.14
2023-03-19T16:40:20.765Z,71.95
2023-03-19T16:42:49.507Z,72.25
2023-03-19T16:45:18.916Z,72.17
2023-03-19T16:47:51.075Z,71.52
2023-03-19T16:50:19.915Z,72.05
2023-03-19T16:52:47.654Z,73.10
2023-03-19T16:55:27.292Z,73.31
2023-03-19T16:58:07.529Z,72.82
2023-03-19T17:00:34.413Z,71.49
2023-03-19T17:03:03.628Z,72.60
2023-03-19T17:05:31.863Z,72.88
2023-03-19T17:07:58.754Z,72.83
2023-03-19T17:10:28.430Z,73.94
2023-03-19T17:12:56.317Z,74.13
2023-03-19T17:16:13.322Z,74.95
2023-03-19T17:18:42.925Z,74.93
2023-03-19T17:21:12.768Z,74.73
2023-03-19T17:23:39.429Z,74.24
2023-03-19T17:26:15.381Z,75.21
2023-03-19T17:28:41.879Z,75.60
2023-03-19T17:31:24.138Z,75.24
2023-03-19T17:33:52.354Z,75.66
2023-03-19T17:36:19.616Z,74.79
2023-03-19T17:38:55.328Z,74.79
2023-03-19T17:41:22.002Z,74.40
2023-03-19T17:43:48.630Z,75.46
2023-03-19T17:46:21.587Z,75.68
2023-03-19T17:48:49.850Z,74.49
2023-03-19T17:51:19.354Z,74.75
2023-03-19T17:53:49.104Z,73.77
2023-03-19T17:56:18.377Z,74.30
2023-03-19T17:58:45.096Z,73.54
2023-03-19T18:01:15.376Z,74.22
2023-03-19T18:03:42.049Z,74.11
2023-03-19T18:06:23.557Z,72.78
2023-03-19T18:08:50.838Z,74.50
2023-03-19T18:11:17.659Z,74.53
2023-03-19T18:13:44.166Z,75.08
2023-03-19T18:16:23.349Z,75.58
2023-03-19T18:18:51.468Z,76.46
2023-03-19T18:21:18.634Z,76.30
2023-03-19T18:23:45.514Z,76.29
2023-03-19T18:26:12.034Z,75.69
2023-03-19T18:28:39.033Z,75.62
2023-03-19T18:31:21.789Z,75.71
2023-03-19T18:33:53.831Z,76.29
2023-03-19T18:36:27.785Z,76.99
2023-03-19T18:38:55.429Z,75.80
2023-03-19T18:41:23.554Z,76.37
2023-03-19T18:43:50.538Z,76.58
2023-03-19T18:46:22.020Z,76.34
2023-03-19T18:48:48.999Z,76.47
2023-03-19T18:51:15.489Z,77.40
2023-03-19T18:53:41.954Z,78.18
2023-03-19T18:56:31.770Z,78.61
2023-03-19T18:58:59.210Z,78.88
2023-03-19T19:01:27.713Z,79.42
2023-03-19T19:03:54.765Z,78.95
2023-03-19T19:06:44.250Z,79.36
2023-03-19T19:09:14.105Z,79.05
2023-03-19T19:11:43.896Z,79.30
2023-03-19T19:14:18.397Z,79.45
2023-03-19T19:16:45.370Z,79.90
2023-03-19T19:19:22.612Z,79.49
2023-03-19T19:21:52.077Z,78.81
2023-03-19T19:24:19.092Z,79.26
2023-03-19T19:26:48.200Z,78.82
2023-03-19T19:29:26.524Z,78.95
2023-03-19T19:31:54.718Z,79.14
2023-03-19T19:34:22.764Z,78.65
2023-03-19T19:36:51.075Z,77.72
2023-03-19T19:39:18.429Z,77.88
2023-03-19T19:41:45.214Z,77.89
2023-03-19T19:44:20.182Z,76.87
2023-03-19T19:46:57.679Z,75.60
2023-03-19T19:49:25.407Z,75.97
2023-03-19T19:51:52.209Z,75.80
2023-03-19T19:54:18.691Z,74.84
2023-03-19T19:56:45.407Z,74.63
2023-03-19T19:59:14.906Z,74.13
2023-03-19T20:01:41.457Z,72.69
2023-03-19T20:04:13.842Z,72.30
2023-03-19T20:06:40.390Z,73.29
2023-03-19T20:09:07.788Z,73.21
2023-03-19T20:11:37.510Z,72.77
2023-03-19T20:14:05.013Z,73.13
2023-03-19T20:16:31.586Z,74.45
2023-03-19T20:18:58.157Z,78.24
2023-03-19T20:21:24.672Z,80.17
2023-03-19T20:23:55.214Z,82.72
2023-03-19T20:26:24.706Z,84.78
2023-03-19T20:28:51.719Z,87.00
2023-03-19T20:31:26.012Z,87.90
2023-03-19T20:33:52.546Z,90.60
2023-03-19T20:36:19.613Z,92.87
2023-03-19T20:38:46.130Z,94.31
2023-03-19T20:41:29.227Z,96.31
2023-03-19T20:43:56.529Z,97.82
2023-03-19T20:46:24.594Z,98.95
2023-03-19T20:48:51.230Z,100.00
2023-03-19T20:51:24.809Z,100.00
2023-03-19T20:53:52.705Z,100.00
2023-03-19T20:56:22.219Z,100.00
2023-03-19T20:58:48.848Z,100.00
2023-03-19T21:01:16.829Z,100.00
2023-03-19T21:03:43.366Z,100.00
2023-03-19T21:06:20.228Z,100.00
2023-03-19T21:08:48.844Z,100.00
2023-03-19T21:11:18.342Z,100.00
2023-03-19T21:13:46.314Z,100.00
2023-03-19T21:16:18.386Z,100.00
2023-03-19T21:18:46.447Z,100.00
2023-03-19T21:21:16.315Z,100.00
2023-03-19T21:23:52.929Z,100.00
2023-03-19T21:26:22.451Z,100.00
2023-03-19T21:28:52.079Z,100.00
2023-03-19T21:31:23.590Z,100.00
2023-03-19T21:33:51.565Z,100.00
2023-03-19T21:36:18.751Z,100.00
2023-03-19T21:38:45.627Z,100.00
2023-03-19T21:41:21.812Z,100.00
2023-03-19T21:43:52.689Z,100.00
2023-03-19T21:46:24.552Z,100.00
2023-03-19T21:48:52.351Z,100.00
2023-03-19T21:51:18.822Z,100.00
2023-03-19T21:53:45.732Z,100.00
2023-03-19T21:56:33.575Z,100.00
2023-03-19T21:59:03.502Z,100.00
2023-03-19T22:01:30.033Z,100.00
2023-03-19T22:03:57.916Z,100.00
2023-03-19T22:06:25.768Z,100.00
2023-03-19T22:08:53.972Z,100.00
2023-03-19T22:11:42.519Z,100.00
2023-03-19T22:14:24.629Z,100.00
2023-03-19T22:16:53.850Z,100.00
2023-03-19T22:19:21.144Z,100.00
2023-03-19T22:21:48.100Z,100.00
2023-03-19T22:24:14.579Z,100.00
2023-03-19T22:26:46.756Z,100.00
2023-03-19T22:29:20.008Z,100.00
2023-03-19T22:31:51.178Z,100.00
2023-03-19T22:34:20.080Z,100.00
2023-03-19T22:36:46.551Z,100.00
2023-03-19T22:39:13.785Z,100.00
2023-03-19T22:41:45.793Z,100.00
2023-03-19T22:44:30.280Z,100.00
2023-03-19T22:46:58.760Z,100.00
2023-03-19T22:49:26.475Z,100.00
2023-03-19T22:51:53.052Z,100.00
2023-03-19T22:54:19.604Z,100.00
2023-03-19T22:56:46.139Z,100.00
2023-03-19T22:59:12.572Z,100.00
2023-03-19T23:01:46.874Z,100.00
2023-03-19T23:04:21.775Z,100.00
2023-03-19T23:06:49.315Z,100.00
2023-03-19T23:09:40.272Z,100.00
2023-03-19T23:14:33.989Z,100.00
2023-03-19T23:17:06.723Z,100.00
2023-03-19T23:19:35.486Z,100.00
2023-03-19T23:22:04.930Z,100.00
2023-03-19T23:24:31.554Z,100.00
2023-03-19T23:26:59.751Z,100.00
2023-03-19T23:29:35.981Z,100.00
2023-03-19T23:32:04.387Z,100.00
2023-03-19T23:34:33.500Z,100.00
2023-03-19T23:37:02.519Z,100.00
2023-03-19T23:39:29.292Z,100.00
2023-03-19T23:41:58.242Z,100.00
2023-03-19T23:44:27.173Z,100.00
2023-03-19T23:46:53.768Z,100.00
2023-03-19T23:49:28.814Z,100.00
2023-03-19T23:51:56.164Z,100.00
2023-03-19T23:54:30.524Z,100.00
2023-03-19T23:56:59.868Z,100.00
2023-03-19T23:59:32.354Z,100.00
